Time;durP1;ratioP1;P1;durP2;ratioP2;P2;SDS_P1;SDS_P2;PMS_P1;PMS_P2;Temp;Humidity;BMP_temperature;BMP_pressure;BME280_temperature;BME280_humidity;BME280_pressure;Samples;Min_cycle;Max_cycle;Signal;HPM_P1;HPM_P2
2022/09/25 00:01:50;;;;;;;2.42;1.40;;;;;;;29.32;27.20;101288.09;5023260;28;20049;-73
2022/09/25 00:04:19;;;;;;;2.72;1.58;;;;;;;29.29;27.67;101286.41;5018827;28;20045;-73
2022/09/25 00:06:48;;;;;;;3.60;1.70;;;;;;;29.25;27.71;101292.78;5016404;28;20603;-72
2022/09/25 00:09:19;;;;;;;3.67;1.60;;;;;;;29.21;27.03;101291.22;5023937;28;20132;-72
2022/09/25 00:11:48;;;;;;;2.65;1.75;;;;;;;29.15;27.21;101289.63;5022468;28;20045;-72
2022/09/25 00:14:16;;;;;;;2.88;1.65;;;;;;;29.09;28.11;101289.91;5021197;28;20053;-72
2022/09/25 00:16:47;;;;;;;4.32;1.90;;;;;;;29.04;28.27;101291.81;5022977;28;20045;-72
2022/09/25 00:22:07;;;;;;;2.22;1.38;;;;;;;28.95;28.37;101287.72;5019626;28;20650;-71
2022/09/25 00:24:36;;;;;;;3.38;1.50;;;;;;;28.91;28.46;101280.78;5022214;28;20049;-74
2022/09/25 00:27:08;;;;;;;5.53;2.00;;;;;;;28.86;29.08;101276.56;5028571;28;20483;-73
2022/09/25 00:29:36;;;;;;;;;;;;;;;28.79;29.35;101283.91;5026875;28;20045;-73
2022/09/25 00:32:07;;;;;;;5.63;2.10;;;;;;;28.71;29.33;101278.03;5021290;28;19921;-71
2022/09/25 00:34:37;;;;;;;4.93;2.10;;;;;;;28.63;29.61;101267.66;5018862;28;20053;-72
2022/09/25 00:37:05;;;;;;;4.97;1.80;;;;;;;28.57;29.86;101271.41;5019867;28;20641;-72
2022/09/25 00:39:35;;;;;;;4.35;2.13;;;;;;;28.50;29.26;101274.38;5017278;28;20407;-73
2022/09/25 00:42:03;;;;;;;3.63;1.52;;;;;;;28.41;29.20;101270.22;5024621;28;20465;-71
2022/09/25 00:44:59;;;;;;;6.13;1.75;;;;;;;28.30;28.36;101270.59;5021371;28;20503;-72
2022/09/25 00:47:55;;;;;;;3.33;1.45;;;;;;;28.22;28.92;101274.47;4989835;28;20502;-73
2022/09/25 00:50:33;;;;;;;3.35;1.73;;;;;;;28.12;29.99;101280.13;5018976;28;20117;-73
2022/09/25 00:53:07;;;;;;;3.63;1.70;;;;;;;28.05;30.17;101275.94;5019158;28;20067;-73
2022/09/25 00:55:38;;;;;;;3.20;1.55;;;;;;;27.95;29.75;101282.50;5017344;28;20056;-71
2022/09/25 00:58:08;;;;;;;2.22;1.65;;;;;;;27.88;31.11;101275.69;5022256;28;20049;-73
2022/09/25 01:00:36;;;;;;;4.57;1.60;;;;;;;27.79;31.21;101276.81;5015190;28;20077;-73
2022/09/25 01:03:09;;;;;;;4.57;2.45;;;;;;;27.71;30.11;101278.84;5024034;28;20057;-73
2022/09/25 01:05:41;;;;;;;4.10;2.20;;;;;;;27.58;30.48;101273.97;5023639;28;20041;-71
2022/09/25 01:08:13;;;;;;;4.82;1.92;;;;;;;27.50;30.64;101277.78;5026485;28;20052;-72
2022/09/25 01:10:42;;;;;;;5.82;2.35;;;;;;;27.37;30.69;101279.97;5026500;28;20057;-72
2022/09/25 01:13:12;;;;;;;5.63;3.13;;;;;;;27.34;30.77;101275.63;5018586;28;20128;-73
2022/09/25 01:15:49;;;;;;;5.10;2.72;;;;;;;27.27;30.24;101271.41;5018050;28;20530;-72
2022/09/25 01:18:30;;;;;;;9.52;2.70;;;;;;;27.20;30.88;101272.53;5028450;28;20046;-73
2022/09/25 01:21:11;;;;;;;3.90;2.30;;;;;;;27.13;30.88;101273.63;5026498;28;20044;-73
2022/09/25 01:24:06;;;;;;;4.97;2.20;;;;;;;26.99;31.08;101273.19;5030624;28;20481;-71
2022/09/25 01:27:01;;;;;;;6.60;2.50;;;;;;;26.94;31.39;101281.28;5007156;28;20041;-73
2022/09/25 01:29:35;;;;;;;4.75;2.60;;;;;;;26.80;31.70;101275.50;5023232;28;20041;-73
2022/09/25 01:32:12;;;;;;;5.65;2.60;;;;;;;26.70;31.68;101281.09;5026545;28;20431;-72
2022/09/25 01:34:49;;;;;;;7.55;2.40;;;;;;;26.63;32.31;101283.97;5023254;28;20050;-73
2022/09/25 01:37:25;;;;;;;4.07;2.50;;;;;;;26.54;32.41;101287.72;5025934;28;20038;-72
2022/09/25 01:40:02;;;;;;;4.93;2.50;;;;;;;26.46;32.56;101289.75;5029072;28;20048;-72
2022/09/25 01:42:37;;;;;;;5.07;2.50;;;;;;;26.35;33.05;101291.81;5022203;28;20685;-71
2022/09/25 01:45:15;;;;;;;4.32;2.53;;;;;;;26.25;33.42;101288.53;5021255;28;20609;-72
2022/09/25 01:47:48;;;;;;;4.40;2.60;;;;;;;26.12;33.19;101286.22;5016748;28;20080;-72
2022/09/25 01:50:26;;;;;;;3.65;2.30;;;;;;;26.06;34.02;101291.69;5023868;28;20633;-72
2022/09/25 01:53:00;;;;;;;3.15;2.30;;;;;;;25.96;33.90;101292.84;5026359;28;20053;-73
2022/09/25 01:55:34;;;;;;;3.35;2.50;;;;;;;25.89;34.18;101299.22;5019771;28;20054;-72
2022/09/25 01:58:10;;;;;;;4.20;2.28;;;;;;;25.79;34.46;101297.66;5021698;28;20041;-72
2022/09/25 02:00:46;;;;;;;4.35;2.38;;;;;;;25.68;34.64;101295.31;5006032;28;20050;-72
2022/09/25 02:03:22;;;;;;;4.90;2.40;;;;;;;25.57;34.09;101292.91;5023510;28;20419;-71
2022/09/25 02:05:53;;;;;;;4.15;2.50;;;;;;;25.47;34.41;101296.66;5008832;28;20554;-70
2022/09/25 02:08:25;;;;;;;5.20;2.58;;;;;;;25.38;34.40;101296.88;5023761;28;20046;-71
2022/09/25 02:10:56;;;;;;;;;;;;;;;25.27;34.69;101300.66;5023920;28;20049;-69
2022/09/25 02:13:28;;;;;;;3.15;2.38;;;;;;;25.15;35.27;101292.97;5027680;28;19936;-73
2022/09/25 02:16:02;;;;;;;5.32;2.60;;;;;;;25.02;36.03;101297.66;5023265;28;20660;-70
2022/09/25 02:21:22;;;;;;;4.68;2.40;;;;;;;24.78;37.79;101300.81;5023112;28;20456;-72
2022/09/25 02:23:56;;;;;;;4.97;2.45;;;;;;;24.67;37.21;101303.72;5024813;28;20052;-74
2022/09/25 02:26:28;;;;;;;4.05;2.50;;;;;;;24.57;37.59;101302.13;5024926;28;20495;-72
2022/09/25 02:28:59;;;;;;;2.83;2.22;;;;;;;24.45;37.83;101309.38;5025302;28;20470;-70
2022/09/25 02:31:34;;;;;;;4.65;2.30;;;;;;;24.35;39.77;101313.13;5022943;28;20052;-72
2022/09/25 02:34:03;;;;;;;5.05;2.05;;;;;;;24.27;37.70;101330.88;5022246;28;20071;-71
2022/09/25 02:36:32;;;;;;;3.13;2.20;;;;;;;24.16;39.45;101316.97;5019423;28;20053;-71
2022/09/25 02:39:03;;;;;;;4.68;2.47;;;;;;;24.07;39.70;101330.38;5021765;28;20169;-71
2022/09/25 02:41:45;;;;;;;4.32;2.10;;;;;;;23.94;38.84;101322.66;5022823;28;20053;-71
2022/09/25 02:44:27;;;;;;;3.88;2.08;;;;;;;23.82;38.73;101333.41;5023410;28;20057;-71
2022/09/25 02:47:13;;;;;;;5.10;1.83;;;;;;;23.69;39.80;101338.00;5021042;28;20056;-72
2022/09/25 02:49:51;;;;;;;6.50;1.85;;;;;;;23.58;39.11;101329.38;5021974;28;20143;-71
2022/09/25 02:52:28;;;;;;;3.80;1.63;;;;;;;23.47;39.27;101331.31;5022752;28;20053;-71
2022/09/25 02:55:03;;;;;;;3.80;1.95;;;;;;;23.36;40.11;101327.03;5014813;28;20062;-70
2022/09/25 02:57:39;;;;;;;2.00;1.67;;;;;;;23.29;39.82;101327.16;5022489;28;20140;-71
2022/09/25 03:00:10;;;;;;;3.70;1.95;;;;;;;23.23;40.33;101329.88;5026464;28;20509;-71
2022/09/25 03:02:49;;;;;;;4.30;1.65;;;;;;;23.15;40.35;101335.25;5029732;28;20472;-71
2022/09/25 03:05:18;;;;;;;4.00;1.70;;;;;;;23.08;40.40;101345.03;5024763;28;20038;-71
2022/09/25 03:10:34;;;;;;;4.05;1.55;;;;;;;22.94;40.54;101346.94;4986092;28;20178;-71
2022/09/25 03:13:15;;;;;;;2.97;1.50;;;;;;;22.85;40.71;101345.28;5030891;28;20557;-72
2022/09/25 03:15:47;;;;;;;6.43;1.30;;;;;;;22.78;41.39;101344.47;5023263;28;20500;-71
2022/09/25 03:18:17;;;;;;;3.65;1.48;;;;;;;22.75;41.74;101346.28;5026577;28;20403;-71
2022/09/25 03:20:46;;;;;;;3.50;1.70;;;;;;;22.73;42.36;101354.22;5022423;28;20045;-72
2022/09/25 03:23:15;;;;;;;2.65;1.50;;;;;;;22.72;42.28;101356.84;5021571;28;20056;-73
2022/09/25 03:25:44;;;;;;;2.72;1.88;;;;;;;22.67;42.04;101349.00;5023875;28;20111;-72
2022/09/25 03:28:13;;;;;;;1.75;1.30;;;;;;;22.65;42.21;101357.81;5023561;28;20055;-71
2022/09/25 03:30:43;;;;;;;2.63;1.45;;;;;;;22.59;42.75;101350.88;5023585;28;20507;-72
2022/09/25 03:33:14;;;;;;;4.72;1.80;;;;;;;22.52;42.87;101360.59;5027824;28;20120;-72
2022/09/25 03:35:44;;;;;;;2.13;1.30;;;;;;;22.45;43.09;101358.03;5026769;28;20414;-72
2022/09/25 03:38:13;;;;;;;2.55;1.60;;;;;;;22.38;42.98;101362.50;5024241;28;20533;-70
2022/09/25 03:40:42;;;;;;;2.05;1.30;;;;;;;22.30;43.24;101357.28;5025905;28;20750;-70
2022/09/25 03:43:11;;;;;;;3.30;1.83;;;;;;;22.24;43.33;101362.66;5024283;28;20056;-71
2022/09/25 03:45:39;;;;;;;4.32;1.58;;;;;;;22.16;43.24;101360.03;5023342;28;20053;-71
2022/09/25 03:48:08;;;;;;;3.03;1.80;;;;;;;22.13;43.35;101361.84;5025759;28;20060;-70
2022/09/25 03:50:38;;;;;;;3.08;1.90;;;;;;;22.08;43.11;101368.88;5021639;28;20055;-71
2022/09/25 03:53:08;;;;;;;5.10;2.05;;;;;;;22.02;43.57;101364.53;5028534;28;20513;-70
2022/09/25 03:55:36;;;;;;;2.75;2.00;;;;;;;21.97;43.53;101366.34;5023288;28;20621;-71
2022/09/25 03:58:05;;;;;;;4.30;2.42;;;;;;;21.94;43.77;101371.63;5018028;28;20048;-71
2022/09/25 04:00:34;;;;;;;3.65;2.15;;;;;;;21.89;44.14;101381.34;5019685;28;20053;-70
2022/09/25 04:03:02;;;;;;;3.38;2.00;;;;;;;21.84;44.23;101384.00;5016828;28;20048;-70
2022/09/25 04:05:31;;;;;;;6.97;4.07;;;;;;;21.79;43.98;101383.16;5033433;28;20072;-70
2022/09/25 04:08:00;;;;;;;5.30;2.05;;;;;;;21.76;44.41;101391.06;5022118;28;20096;-69
2022/09/25 04:10:30;;;;;;;2.38;1.50;;;;;;;21.71;44.42;101392.84;5021847;28;20045;-71
2022/09/25 04:12:59;;;;;;;5.47;2.10;;;;;;;21.67;44.58;101393.75;5024731;28;20621;-71
2022/09/25 04:15:28;;;;;;;4.90;1.85;;;;;;;21.62;44.69;101390.28;5016878;28;21050;-71
2022/09/25 04:17:57;;;;;;;2.58;1.88;;;;;;;21.58;44.85;101391.19;5015735;28;20695;-70
2022/09/25 04:20:25;;;;;;;2.45;1.58;;;;;;;21.54;45.13;101392.97;5020845;28;20777;-72
2022/09/25 04:22:54;;;;;;;4.75;1.65;;;;;;;21.47;45.04;101392.13;5017594;28;20830;-71
2022/09/25 04:25:24;;;;;;;4.82;1.52;;;;;;;21.39;45.67;101396.53;5026059;28;20041;-72
2022/09/25 04:27:57;;;;;;;2.83;1.67;;;;;;;21.30;45.56;101388.66;5021773;28;20157;-71
2022/09/25 04:30:26;;;;;;;5.43;1.80;;;;;;;21.21;45.93;101394.88;5023537;28;20056;-69
2022/09/25 04:35:41;;;;;;;3.22;2.10;;;;;;;20.99;46.76;101394.06;5026058;28;20519;-70
2022/09/25 04:38:10;;;;;;;3.13;1.70;;;;;;;20.89;46.90;101395.84;5021075;28;20052;-69
2022/09/25 04:40:39;;;;;;;4.93;2.13;;;;;;;20.81;46.99;101404.66;5020040;28;20046;-69
2022/09/25 04:43:09;;;;;;;2.35;1.70;;;;;;;20.75;47.59;101407.28;5024437;28;20046;-70
2022/09/25 04:45:38;;;;;;;2.72;1.73;;;;;;;20.67;48.47;101402.03;5028579;28;20049;-68
2022/09/25 04:48:06;;;;;;;2.63;1.67;;;;;;;20.59;48.65;101399.44;5023455;28;20057;-70
2022/09/25 04:50:35;;;;;;;2.92;1.70;;;;;;;20.57;48.81;101401.19;5027163;28;20478;-70
2022/09/25 04:53:04;;;;;;;2.78;1.48;;;;;;;20.54;49.07;101400.28;5026805;28;20050;-69
2022/09/25 04:55:33;;;;;;;4.20;1.60;;;;;;;20.48;49.36;101396.78;5021943;28;20053;-69
2022/09/25 04:58:02;;;;;;;2.20;1.67;;;;;;;20.45;49.30;101401.16;5032655;28;20053;-69
2022/09/25 05:00:33;;;;;;;2.63;1.90;;;;;;;20.40;50.00;101405.53;5022921;28;20056;-69
2022/09/25 05:03:04;;;;;;;4.45;1.98;;;;;;;20.35;49.90;101400.28;5023915;28;20045;-69
2022/09/25 05:05:33;;;;;;;2.63;1.63;;;;;;;20.29;50.13;101401.19;5023512;28;20049;-70
2022/09/25 05:08:02;;;;;;;2.78;1.80;;;;;;;20.23;50.39;101401.19;5025493;28;20060;-70
2022/09/25 05:10:33;;;;;;;6.40;2.10;;;;;;;20.19;50.65;101396.78;5025310;28;20067;-69
2022/09/25 05:13:02;;;;;;;2.30;1.50;;;;;;;20.11;50.95;101395.03;5017631;28;20053;-69
2022/09/25 05:15:34;;;;;;;2.20;1.67;;;;;;;20.03;51.47;101400.28;5024559;28;20073;-68
2022/09/25 05:18:04;;;;;;;3.08;1.52;;;;;;;19.97;51.26;101389.78;5027850;28;20060;-69
2022/09/25 05:20:33;;;;;;;3.00;1.90;;;;;;;19.91;51.59;101397.66;5026973;28;20100;-69
2022/09/25 05:23:03;;;;;;;7.70;1.65;;;;;;;19.85;52.41;101399.38;5022769;28;20064;-69
2022/09/25 05:25:32;;;;;;;2.17;1.63;;;;;;;19.80;52.31;101395.88;5023986;28;20049;-69
2022/09/25 05:28:02;;;;;;;2.78;1.70;;;;;;;19.75;52.35;101395.00;5025294;28;20046;-69
2022/09/25 05:30:39;;;;;;;3.05;1.92;;;;;;;19.70;52.25;101396.75;5025765;28;20506;-69
2022/09/25 05:33:07;;;;;;;3.28;1.67;;;;;;;19.66;52.69;101393.19;5023397;28;20038;-69
2022/09/25 05:35:36;;;;;;;3.35;1.70;;;;;;;19.63;52.84;101397.56;5025243;28;20111;-70
2022/09/25 05:38:07;;;;;;;3.55;1.98;;;;;;;19.54;53.48;101389.66;5025143;28;20053;-68
2022/09/25 05:40:37;;;;;;;6.22;2.17;;;;;;;19.47;53.66;101388.78;5029648;28;20279;-68
2022/09/25 05:43:06;;;;;;;4.53;1.67;;;;;;;19.42;53.33;101394.03;5018674;28;20515;-69
2022/09/25 05:45:37;;;;;;;3.25;2.00;;;;;;;19.39;53.51;101396.63;5025272;28;20439;-69
2022/09/25 05:48:07;;;;;;;3.88;1.90;;;;;;;19.34;54.09;101398.34;5023449;28;20136;-68
2022/09/25 05:50:36;;;;;;;6.20;2.05;;;;;;;19.29;54.17;101401.81;5013232;28;20049;-69
2022/09/25 05:53:06;;;;;;;3.92;1.83;;;;;;;19.25;54.74;101403.56;5020185;28;20092;-69
2022/09/25 05:55:34;;;;;;;2.80;1.63;;;;;;;19.22;54.97;101401.81;5017328;28;20045;-68
2022/09/25 05:58:04;;;;;;;3.28;1.90;;;;;;;19.17;54.89;101400.03;5022053;28;20643;-69
2022/09/25 06:00:33;;;;;;;3.85;1.80;;;;;;;19.10;55.32;101401.75;5015473;28;20522;-69
2022/09/25 06:03:03;;;;;;;5.03;2.40;;;;;;;19.04;55.94;101406.97;5025040;28;20053;-69
2022/09/25 06:05:32;;;;;;;4.38;1.70;;;;;;;19.01;56.07;101407.84;5024170;28;20046;-70
2022/09/25 06:08:00;;;;;;;4.15;2.03;;;;;;;18.99;55.81;101414.81;5025668;28;20054;-69
2022/09/25 06:10:30;;;;;;;4.93;1.30;;;;;;;18.95;56.23;101415.66;5030686;28;20042;-69
2022/09/25 06:13:00;;;;;;;5.70;1.70;;;;;;;18.93;56.24;101417.41;5023476;28;20053;-69
2022/09/25 06:15:29;;;;;;;3.05;2.15;;;;;;;18.90;56.49;101413.88;5021294;28;20419;-68
2022/09/25 06:17:57;;;;;;;4.57;2.20;;;;;;;18.86;56.68;101420.88;5023732;28;20046;-69
2022/09/25 06:20:28;;;;;;;3.60;1.73;;;;;;;18.83;56.92;101415.63;5023483;28;20060;-69
2022/09/25 06:22:57;;;;;;;2.92;1.77;;;;;;;18.81;57.49;101417.34;5023265;28;20041;-69
2022/09/25 06:25:28;;;;;;;4.00;1.75;;;;;;;18.77;57.36;101412.94;5022384;28;20100;-68
2022/09/25 06:27:59;;;;;;;3.65;1.70;;;;;;;18.76;57.30;101414.66;5021937;28;20045;-68
2022/09/25 06:30:29;;;;;;;4.47;2.08;;;;;;;18.72;57.32;101418.13;5024344;28;20056;-69
2022/09/25 06:32:59;;;;;;;5.13;1.98;;;;;;;18.71;57.61;101425.97;5024126;28;20049;-69
2022/09/25 06:35:29;;;;;;;3.15;1.98;;;;;;;18.65;57.89;101421.56;5025636;28;20130;-69
2022/09/25 06:37:59;;;;;;;7.93;2.55;;;;;;;18.60;57.88;101416.31;5024519;28;20119;-68
2022/09/25 06:40:28;;;;;;;4.03;2.17;;;;;;;18.58;57.77;101418.03;5023899;28;20458;-70
2022/09/25 06:42:57;;;;;;;4.00;1.95;;;;;;;18.52;57.74;101412.75;5022811;28;20415;-70
2022/09/25 06:45:27;;;;;;;4.80;2.30;;;;;;;18.47;58.21;101424.94;5020376;28;20420;-69
2022/09/25 06:48:00;;;;;;;4.05;2.13;;;;;;;18.42;58.60;101416.16;5026046;28;20513;-70
2022/09/25 06:50:36;;;;;;;6.95;1.73;;;;;;;18.39;58.57;101421.38;5021864;28;20415;-69
2022/09/25 06:53:04;;;;;;;2.83;1.60;;;;;;;18.35;59.73;101422.22;5026315;28;20049;-69
2022/09/25 06:55:33;;;;;;;6.22;2.03;;;;;;;18.33;58.95;101426.56;5028284;28;20634;-68
2022/09/25 06:58:03;;;;;;;3.40;2.00;;;;;;;18.30;59.51;101414.34;5028932;28;20053;-69
2022/09/25 07:00:32;;;;;;;2.97;1.67;;;;;;;18.30;59.43;101421.28;5029970;28;20057;-69
2022/09/25 07:05:48;;;;;;;3.78;2.10;;;;;;;18.23;59.43;101414.25;5034126;28;20056;-69
2022/09/25 07:08:19;;;;;;;3.83;2.05;;;;;;;18.19;59.65;101414.22;5024772;28;20041;-69
2022/09/25 07:10:53;;;;;;;4.00;1.85;;;;;;;18.16;60.17;101422.06;5021897;28;20570;-69
2022/09/25 07:13:23;;;;;;;4.28;2.25;;;;;;;18.13;59.30;101411.56;5026123;28;20038;-69
2022/09/25 07:15:53;;;;;;;4.15;2.05;;;;;;;18.09;59.23;101414.13;5024073;28;20691;-69
2022/09/25 07:18:21;;;;;;;5.30;1.83;;;;;;;18.05;59.72;101415.84;5028253;28;20411;-68
2022/09/25 07:20:53;;;;;;;4.38;1.77;;;;;;;18.01;59.39;101414.06;5027121;28;20045;-69
2022/09/25 07:23:22;;;;;;;2.90;1.42;;;;;;;17.95;59.71;101414.00;5022130;28;20045;-69
2022/09/25 07:25:51;;;;;;;8.52;2.72;;;;;;;17.93;60.50;101420.97;5018689;28;20053;-69
2022/09/25 07:28:20;;;;;;;5.07;1.50;;;;;;;17.91;60.33;101425.28;5025881;28;20388;-70
2022/09/25 07:30:49;;;;;;;2.83;1.67;;;;;;;17.86;59.70;101413.91;5023556;28;20434;-69
2022/09/25 07:33:18;;;;;;;2.60;1.83;;;;;;;17.80;60.38;101418.19;5021702;28;20111;-68
2022/09/25 07:35:47;;;;;;;4.95;1.90;;;;;;;17.74;60.82;101418.13;5023627;28;20207;-69
2022/09/25 07:38:17;;;;;;;4.72;1.88;;;;;;;17.70;61.09;101411.09;5019061;28;20053;-69
2022/09/25 07:40:46;;;;;;;6.15;2.47;;;;;;;17.65;61.64;101412.78;5024079;28;20522;-69
2022/09/25 07:43:15;;;;;;;3.15;2.05;;;;;;;17.63;61.32;101411.88;5027521;28;20053;-69
2022/09/25 07:45:52;;;;;;;2.50;1.70;;;;;;;17.59;61.68;101411.00;5025489;28;20419;-68
2022/09/25 07:48:22;;;;;;;3.10;2.33;;;;;;;17.55;61.91;101406.59;5012376;28;20049;-69
2022/09/25 07:50:51;;;;;;;2.20;1.88;;;;;;;17.51;61.62;101401.31;5017185;28;20046;-69
2022/09/25 07:53:21;;;;;;;3.67;1.85;;;;;;;17.45;63.00;101407.31;5015240;28;20479;-68
2022/09/25 07:55:50;;;;;;;3.97;2.83;;;;;;;17.37;63.74;101409.88;5017885;28;20057;-69
2022/09/25 07:58:19;;;;;;;3.67;2.22;;;;;;;17.32;63.88;101408.06;5027912;28;20062;-68
2022/09/25 08:00:48;;;;;;;8.38;2.33;;;;;;;17.30;63.57;101401.94;5018094;28;20053;-68
2022/09/25 08:03:17;;;;;;;5.20;2.05;;;;;;;17.28;63.66;101403.66;5022564;28;20123;-69
2022/09/25 08:05:45;;;;;;;4.38;1.98;;;;;;;17.25;64.48;101409.72;5028408;28;20406;-70
2022/09/25 08:08:14;;;;;;;7.93;2.80;;;;;;;17.20;65.01;101406.16;5026975;28;20491;-68
2022/09/25 08:10:44;;;;;;;3.47;2.42;;;;;;;17.12;64.70;101402.56;5023226;28;20056;-69
2022/09/25 08:13:13;;;;;;;4.55;2.35;;;;;;;17.09;65.88;101407.78;5022133;28;20689;-69
2022/09/25 08:15:42;;;;;;;3.55;2.05;;;;;;;17.06;65.37;101410.31;5022684;28;20049;-68
2022/09/25 08:18:10;;;;;;;2.47;2.03;;;;;;;17.05;65.38;101417.31;5021651;28;20052;-68
2022/09/25 08:20:39;;;;;;;4.00;2.30;;;;;;;17.00;65.64;101407.66;5022358;28;20539;-68
2022/09/25 08:23:07;;;;;;;3.65;2.50;;;;;;;16.93;66.39;101412.78;5026116;28;20046;-69
2022/09/25 08:25:36;;;;;;;4.15;2.35;;;;;;;16.89;66.81;101410.97;5024153;28;20115;-69
2022/09/25 08:28:06;;;;;;;5.30;2.45;;;;;;;16.87;66.76;101407.47;5026692;28;20053;-68
2022/09/25 08:30:37;;;;;;;5.38;2.40;;;;;;;16.87;66.30;101406.59;5016134;28;21237;-70
2022/09/25 08:33:05;;;;;;;5.22;2.35;;;;;;;16.85;66.42;101409.16;5023371;28;20044;-69
2022/09/25 08:35:34;;;;;;;2.95;2.00;;;;;;;16.82;65.82;101406.53;5020545;28;20045;-69
2022/09/25 08:38:03;;;;;;;3.35;1.92;;;;;;;16.79;67.06;101405.56;5022982;28;20042;-69
2022/09/25 08:40:35;;;;;;;6.25;1.95;;;;;;;16.76;66.78;101403.78;5018043;28;20052;-68
2022/09/25 08:43:07;;;;;;;5.90;2.60;;;;;;;16.75;67.55;101404.66;5024210;28;20515;-68
2022/09/25 08:51:18;;;;;;;9.70;2.17;;;;;;;16.61;66.54;101400.97;5022070;28;20123;-69
2022/09/25 08:53:47;;;;;;;3.47;2.03;;;;;;;16.55;67.66;101405.22;5018894;28;20054;-69
2022/09/25 08:56:17;;;;;;;4.50;2.30;;;;;;;16.52;67.40;101409.53;5024134;28;20053;-70
2022/09/25 08:58:54;;;;;;;3.80;2.25;;;;;;;16.48;68.25;101407.72;5014923;28;20077;-69
2022/09/25 09:01:26;;;;;;;4.15;2.00;;;;;;;16.44;67.49;101398.06;5022560;28;20411;-68
2022/09/25 09:04:04;;;;;;;3.88;2.05;;;;;;;16.40;67.28;101410.22;5027765;28;20415;-69
2022/09/25 09:06:34;;;;;;;3.28;1.88;;;;;;;16.32;68.41;101404.00;5026010;28;20120;-68
2022/09/25 09:09:10;;;;;;;3.08;1.90;;;;;;;16.27;68.18;101408.25;5028081;28;20434;-68
2022/09/25 09:11:46;;;;;;;4.85;1.83;;;;;;;16.21;69.03;101402.94;5020675;28;20049;-68
2022/09/25 09:14:19;;;;;;;3.70;1.92;;;;;;;16.15;69.36;101397.59;5022255;28;20041;-69
2022/09/25 09:16:53;;;;;;;4.00;1.77;;;;;;;16.13;69.61;101394.97;5025467;28;20137;-68
2022/09/25 09:19:22;;;;;;;4.28;2.22;;;;;;;16.12;69.13;101399.28;5025370;28;20081;-68
2022/09/25 09:21:59;;;;;;;2.47;1.88;;;;;;;16.08;69.94;101400.13;5020926;28;20463;-67
2022/09/25 09:24:35;;;;;;;2.53;1.90;;;;;;;16.04;69.58;101400.91;5034748;28;20078;-69
2022/09/25 09:27:21;;;;;;;4.97;1.98;;;;;;;15.94;69.48;101398.97;5019589;28;21223;-68
2022/09/25 09:30:02;;;;;;;7.13;1.70;;;;;;;15.97;69.99;101401.66;5019266;28;20049;-68
2022/09/25 09:32:51;;;;;;;2.92;1.73;;;;;;;15.93;69.53;101399.84;5023995;28;20059;-68
2022/09/25 09:35:28;;;;;;;4.18;1.65;;;;;;;15.89;70.03;101405.84;5023664;28;20426;-68
2022/09/25 09:38:05;;;;;;;4.85;2.13;;;;;;;15.84;70.53;101408.38;5022823;28;20131;-68
2022/09/25 09:41:00;;;;;;;5.25;2.50;;;;;;;15.79;70.72;101403.94;5023856;28;20491;-67
2022/09/25 09:43:39;;;;;;;2.95;1.80;;;;;;;15.72;70.19;101397.72;5025452;28;20041;-68
2022/09/25 09:46:20;;;;;;;3.60;2.10;;;;;;;15.67;70.69;101395.00;5027025;28;20740;-68
2022/09/25 09:49:00;;;;;;;5.40;1.70;;;;;;;15.62;71.50;101401.88;5024444;28;20132;-68
2022/09/25 09:51:33;;;;;;;4.70;1.83;;;;;;;15.60;71.55;101403.56;5028138;28;20099;-69
2022/09/25 09:54:08;;;;;;;2.95;1.73;;;;;;;15.57;70.90;101392.19;5035262;28;20522;-69
2022/09/25 09:56:37;;;;;;;6.43;2.20;;;;;;;15.53;71.80;101393.88;5038523;28;20067;-67
2022/09/25 09:59:07;;;;;;;3.53;1.83;;;;;;;15.50;72.18;101397.25;5037815;28;20482;-68
2022/09/25 10:01:40;;;;;;;5.22;1.77;;;;;;;15.46;71.99;101390.25;5021468;28;20142;-67
2022/09/25 10:04:10;;;;;;;;;;;;;;;15.42;72.35;101392.78;5025923;28;20495;-68
2022/09/25 10:06:42;;;;;;;3.42;1.85;;;;;;;15.39;72.30;101400.50;5024368;28;20327;-68
2022/09/25 10:09:14;;;;;;;3.97;1.60;;;;;;;15.34;72.75;101394.34;5027766;28;20081;-69
2022/09/25 10:11:46;;;;;;;8.23;1.90;;;;;;;15.29;73.02;101392.50;5029453;28;20570;-69
2022/09/25 10:14:21;;;;;;;3.20;1.90;;;;;;;15.26;73.03;101392.47;5025268;28;20057;-69
2022/09/25 10:16:53;;;;;;;2.50;1.75;;;;;;;15.22;72.52;101393.22;5022693;28;20053;-69
2022/09/25 10:19:24;;;;;;;4.07;1.95;;;;;;;15.19;73.18;101390.56;5023372;28;20049;-69
2022/09/25 10:21:56;;;;;;;3.00;1.95;;;;;;;15.15;73.15;101388.75;5028006;28;20674;-70
2022/09/25 10:24:53;;;;;;;3.63;1.77;;;;;;;15.13;72.45;101390.44;5025862;28;20053;-69
2022/09/25 10:27:28;;;;;;;3.78;1.88;;;;;;;15.03;73.31;101376.34;5020521;28;20052;-69
2022/09/25 10:30:19;;;;;;;4.28;2.00;;;;;;;15.05;73.45;101385.06;5023947;28;20041;-69
2022/09/25 10:33:05;;;;;;;4.32;2.33;;;;;;;15.01;72.95;101388.47;5031411;28;20051;-68
2022/09/25 10:35:44;;;;;;;3.78;1.58;;;;;;;14.97;72.19;101389.22;5024977;28;20415;-68
2022/09/25 10:38:28;;;;;;;4.07;1.70;;;;;;;14.95;72.60;101395.25;5021746;28;20054;-68
2022/09/25 10:41:03;;;;;;;2.42;1.60;;;;;;;14.91;72.55;101390.81;5025079;28;20049;-68
2022/09/25 10:43:32;;;;;;;2.20;1.77;;;;;;;14.84;74.11;101393.31;5025495;28;20693;-68
2022/09/25 10:46:12;;;;;;;4.20;1.73;;;;;;;14.75;74.27;101390.50;5024829;28;20045;-68
2022/09/25 10:51:31;;;;;;;3.75;1.70;;;;;;;14.56;75.43;101391.78;5024707;28;20072;-68
2022/09/25 10:54:13;;;;;;;2.92;1.60;;;;;;;14.50;75.72;101390.72;5025129;28;20525;-68
2022/09/25 10:56:43;;;;;;;4.05;1.80;;;;;;;14.48;76.02;101392.41;5017547;28;20412;-69
2022/09/25 10:59:18;;;;;;;2.28;1.52;;;;;;;14.44;75.76;101381.94;4995222;28;20046;-69
2022/09/25 11:01:49;;;;;;;3.25;1.67;;;;;;;14.45;75.89;101385.41;5006605;28;20581;-68
2022/09/25 11:04:23;;;;;;;7.57;1.70;;;;;;;14.44;75.35;101381.94;4994763;28;20066;-68
2022/09/25 11:06:54;;;;;;;3.28;1.80;;;;;;;14.44;75.85;101376.72;5001651;28;20152;-68
2022/09/25 11:09:24;;;;;;;3.05;1.70;;;;;;;14.43;75.32;101372.38;5000166;28;20053;-68
2022/09/25 11:12:04;;;;;;;3.53;1.85;;;;;;;14.41;75.81;101370.59;5004698;28;20046;-68
2022/09/25 11:14:35;;;;;;;2.92;1.70;;;;;;;14.38;76.28;101376.56;4999936;28;20054;-68
2022/09/25 11:17:05;;;;;;;2.60;1.75;;;;;;;14.33;75.35;101372.09;4996959;28;20128;-68
2022/09/25 11:19:37;;;;;;;2.90;1.98;;;;;;;14.25;76.27;101369.34;5003093;28;20060;-68
2022/09/25 11:22:17;;;;;;;4.10;2.08;;;;;;;14.19;76.71;101374.38;5000152;28;20054;-68
2022/09/25 11:24:57;;;;;;;2.42;1.40;;;;;;;14.18;76.57;101370.03;5000333;28;20088;-69
2022/09/25 11:27:34;;;;;;;2.63;1.70;;;;;;;14.16;76.73;101363.91;5002608;28;20623;-68
2022/09/25 11:30:06;;;;;;;3.05;1.48;;;;;;;14.16;76.78;101363.91;4996714;28;20678;-70
2022/09/25 11:32:44;;;;;;;3.38;1.73;;;;;;;14.17;77.41;101365.66;4998144;28;20054;-69
2022/09/25 11:35:40;;;;;;;2.42;1.63;;;;;;;14.17;76.34;101360.44;4999134;28;20627;-68
2022/09/25 11:38:18;;;;;;;3.03;1.67;;;;;;;14.16;76.56;101358.69;4999046;28;20686;-68
2022/09/25 11:41:11;;;;;;;2.20;1.60;;;;;;;14.14;76.28;101357.78;5002429;28;20046;-69
2022/09/25 11:43:51;;;;;;;2.72;1.48;;;;;;;14.13;76.34;101353.41;5001920;28;20054;-68
2022/09/25 11:46:28;;;;;;;2.22;1.35;;;;;;;14.11;76.15;101350.78;5007286;28;20050;-68
2022/09/25 11:49:10;;;;;;;4.93;1.70;;;;;;;14.07;75.70;101353.28;5009562;28;20080;-68
2022/09/25 11:52:02;;;;;;;2.10;1.10;;;;;;;14.03;76.91;101353.19;5001602;28;20139;-68
2022/09/25 11:54:42;;;;;;;1.70;1.45;;;;;;;14.02;76.79;101351.44;4996336;28;20960;-68
2022/09/25 11:57:20;;;;;;;2.00;1.40;;;;;;;14.00;76.73;101358.31;5010656;27;20116;-67
2022/09/25 12:00:08;;;;;;;1.95;1.35;;;;;;;13.98;77.48;101354.78;5016417;28;20053;-68
2022/09/25 12:02:50;;;;;;;2.88;1.38;;;;;;;13.96;77.42;101359.06;5022438;28;20056;-68
2022/09/25 12:05:33;;;;;;;2.75;1.63;;;;;;;13.93;77.25;101356.41;5031040;28;20053;-68
2022/09/25 12:08:27;;;;;;;3.80;1.52;;;;;;;13.91;77.25;101362.41;5024406;28;20559;-68
2022/09/25 12:11:02;;;;;;;2.45;1.25;;;;;;;13.86;77.25;101349.28;5022262;28;20499;-68
2022/09/25 12:13:43;;;;;;;1.98;1.30;;;;;;;13.83;77.11;101354.38;5012292;28;20132;-68
2022/09/25 12:16:19;;;;;;;2.50;1.48;;;;;;;13.80;76.92;101355.19;5017310;28;20049;-68